AirNav   Air Wisconsin Up To $57,000 Bonus
 
 1014 users online  

4R1 I H Bass Jr Memorial Airport
Lumberton, Mississippi, USA

GOING TO LUMBERTON?


FAA INFORMATION EFFECTIVE 05 NOVEMBER 2020

Location

FAA Identifier: 4R1
Lat/Long: 31-00-55.2000N 089-28-57.2000W
31-00.920000N 089-28.953333W
31.0153333,-89.4825556
(estimated)
Elevation: 310 ft. / 94.5 m (surveyed)
Variation: 02E (1985)
From city: 2 miles NW of LUMBERTON, MS
Time zone: UTC -6 (UTC -5 during Daylight Saving Time)
Zip code: 39455

Airport Operations

Airport use: Open to the public
Control tower: no
ARTCC: HOUSTON CENTER
FSS: GREENWOOD FLIGHT SERVICE STATION
NOTAMs facility: GWO (NOTAM-D service available)
Attendance: UNATNDD
Wind indicator: lighted
Segmented circle: yes
Lights: ACTVT PAPI RWY 14 & 32; MIRL RWY 14/32 - CTAF.
Beacon: white-green (lighted land airport)
Operates sunset to sunrise.

Airport Communications

CTAF/UNICOM: 122.8
WX ASOS at HBG (19 nm NE): 135.425 (601-544-2185)

Nearby radio navigation aids

VOR radial/distance  VOR name  Freq  Var
LBYr192/25.3EATON VORTAC110.6005E
PCUr020/30.1PICAYUNE VOR/DME114.1505E

 
NDB name  Hdg/Dist  Freq  Var  ID
BOGALUSA068/21.135300WGVB --. ...- -...

Airport Services

Parking: tiedowns
Airframe service: NONE
Powerplant service: NONE
Bottled oxygen: NONE
Bulk oxygen: NONE

Runway Information

Runway 14/32

Dimensions: 3000 x 75 ft. / 914 x 23 m
Surface: asphalt, in fair condition
Weight bearing capacity: 
Single wheel: 22.0
Runway edge lights: medium intensity
RUNWAY 14  RUNWAY 32
Latitude: 31-01.120273N31-00.718557N
Longitude: 089-29.120773W089-28.785013W
Elevation: 305.0 ft.301.0 ft.
Traffic pattern: leftleft
Runway heading: 142 magnetic, 144 true322 magnetic, 324 true
Markings: basic, in good conditionbasic, in good condition
Visual slope indicator: 2-light PAPI on left2-light PAPI on left
Obstructions: 66 ft. trees, 1520 ft. from runway, 20:1 slope to clear40 ft. trees, 1000 ft. from runway, 75 ft. left of centerline, 20:1 slope to clear

Airport Ownership and Management from official FAA records

Ownership: Publicly-owned
Owner: CITY OF LUMBERTON
P.O.BOX 211
LUMBERTON, MS 39455
Phone 601-796-8341
Manager: JOEL BRIGHTBILL
199 LOWER AIRPORT RD
LUMBERTON, MS 39455
Phone 504-453-4228
QUINCY ROGERS.

Airport Operational Statistics

Aircraft based on the field: 2
Single engine airplanes: 2
    
Aircraft operations: avg 98/week *
83% local general aviation
17% transient general aviation
* for 12-month period ending 17 June 2020

Additional Remarks

FOR CD CTC HOUSTON ARTCC AT 281-230-5622.

Instrument Procedures

There are no published instrument procedures at 4R1.

Some nearby airports with instrument procedures:

M13 - Poplarville-Pearl River County Airport (14 nm S)
KHBG - Hattiesburg Bobby L Chain Municipal Airport (19 nm NE)
KBXA - George R Carr Memorial Air Field (23 nm SW)
0R0 - Columbia-Marion County Airport (24 nm NW)
KPIB - Hattiesburg-Laurel Regional Airport (28 nm N)
 
Loc | Ops | Rwys | IFR | FBO | Links
Com | Nav | Svcs | Stats | Notes

Continental Services
AirBoss

 
Area around 4R1 (I H Bass Jr Memorial Airport)
 
Road maps at: MapQuest Bing Google
 
Aerial photo
WARNING: Photo may not be current or correct
Aerial photo of 4R1 (I H Bass Jr Memorial Airport)
Photo by Joel A Brightbill
Photo taken 30-Jul-2019
looking southeast.

Do you have a better or more recent aerial photo of I H Bass Jr Memorial Airport that you would like to share? If so, please send us your photo.

 
Sectional chart

 
Airport distance calculator
Flying to I H Bass Jr Memorial Airport? Find the distance to fly.

From to 4R1

Sunrise and sunset
Times for 29-Nov-2020
 Local
(UTC-6)
 Zulu
(UTC)
Morning civil twilight06:1212:12
Sunrise06:3912:39
Sunset16:5522:55
Evening civil twilight17:2123:21

Current date and time
Zulu (UTC)  30-Nov-2020 02:27:51
Local (UTC-6)  29-Nov-2020 20:27:51
 
METAR
KHBG 
19nm NE 
300153Z AUTO 30012G20KT 10SM FEW008 OVC013 12/11 A2988 RMK AO2 RAB0054E22B30E42 SLP118 P0000 T01220106
KBXA 
23nm SW 
300215Z AUTO 32010G19KT 7SM BKN012 OVC017 13/11 A2993 RMK AO2 T01300105
K0R0 
24nm NW 
300215Z AUTO 32008G18KT 290V350 10SM OVC009 10/09 A2996 RMK AO2
KLUL 
28nm N 
300215Z AUTO 30015G26KT 10SM BKN014 BKN028 OVC048 11/09 A2988 RMK A02 T01130092
KPIB 
28nm N 
300156Z AUTO 32012G17KT 10SM OVC011 12/11 A2989 RMK AO2 RAB06E36 CIG 008V013 SLP123 P0000 T01170106
KMJD 
33nm S 
300215Z AUTO 00000KT 4SM BKN009 OVC014 13/12 RMK AO2
TAF
KHBG 
19nm NE 
291749Z 2918/3018 04006KT 2SM RA BR OVC004 FM292300 32014G22KT 6SM -RA BR OVC007 FM300200 32014KT P6SM SCT009 OVC015
NOTAMs
Click for the latest NOTAMs
NOTAMs are issued by the DoD/FAA and will open in a separate window not controlled by AirNav.

 

 
 

Would you like to see your business listed on this page?

 If your business provides an interesting product or service to pilots, flight crews, aircraft, or users of the I H Bass Jr Memorial Airport, you should consider listing it here.  To start the listing process, click on the button below
 
Add a business
 

Other Pages about I H Bass Jr Memorial Airport

Update a link
 
Copyright © AirNav, LLC. All rights reserved. Privacy Policy  Contact